Time;durP1;ratioP1;P1;durP2;ratioP2;P2;SDS_P1;SDS_P2;PMS_P1;PMS_P2;Temp;Humidity;BMP_temperature;BMP_pressure;BME280_temperature;BME280_humidity;BME280_pressure;Samples;Min_cycle;Max_cycle;Signal;HPM_P1;HPM_P2
2021/07/29 00:00:59;;;;;;;5.63;2.85;;;18.90;99.90;;;;;;5041774;28;20078;-75
2021/07/29 00:03:27;;;;;;;6.13;3.22;;;18.80;99.90;;;;;;5042644;28;20044;-74
2021/07/29 00:05:54;;;;;;;6.30;3.05;;;18.70;99.90;;;;;;5043379;28;20060;-74
2021/07/29 00:08:21;;;;;;;5.93;3.08;;;18.70;99.90;;;;;;5038419;28;20080;-74
2021/07/29 00:10:49;;;;;;;6.43;3.38;;;18.60;99.90;;;;;;5040662;28;20456;-73
2021/07/29 00:13:17;;;;;;;5.88;3.33;;;18.60;99.90;;;;;;5041515;28;20123;-73
2021/07/29 00:15:44;;;;;;;6.93;3.17;;;18.50;99.90;;;;;;5041137;28;20040;-73
2021/07/29 00:20:57;;;;;;;6.10;3.30;;;18.30;99.90;;;;;;5040385;28;20248;-74
2021/07/29 00:23:24;;;;;;;6.22;3.10;;;18.30;99.90;;;;;;5040804;28;20091;-73
2021/07/29 00:25:51;;;;;;;5.22;3.22;;;18.20;99.90;;;;;;5043643;28;20056;-74
2021/07/29 00:28:18;;;;;;;5.95;3.35;;;18.10;99.90;;;;;;5040072;28;20044;-72
2021/07/29 00:30:45;;;;;;;6.90;3.17;;;18.10;99.90;;;;;;5040067;28;20076;-73
2021/07/29 00:33:14;;;;;;;8.52;3.15;;;18.10;99.90;;;;;;5040331;28;20044;-74
2021/07/29 00:35:41;;;;;;;7.57;3.50;;;18.10;99.90;;;;;;5042048;28;20052;-73
2021/07/29 00:38:08;;;;;;;5.47;3.42;;;18.00;99.90;;;;;;5039339;28;20509;-74
2021/07/29 00:40:35;;;;;;;6.65;3.75;;;18.00;99.90;;;;;;5040637;28;20079;-74
2021/07/29 00:43:02;;;;;;;5.97;2.90;;;17.90;99.90;;;;;;5039313;28;20126;-73
2021/07/29 00:45:29;;;;;;;6.55;3.80;;;17.90;99.90;;;;;;5040737;28;20048;-73
2021/07/29 00:47:56;;;;;;;6.25;2.90;;;17.90;99.90;;;;;;5039579;28;20778;-73
2021/07/29 00:50:25;;;;;;;8.13;3.72;;;17.90;99.90;;;;;;5040130;28;21089;-74
2021/07/29 00:52:52;;;;;;;5.85;3.38;;;17.80;99.90;;;;;;5040891;28;20056;-75
2021/07/29 00:55:21;;;;;;;7.75;3.38;;;17.90;99.90;;;;;;5040199;28;20102;-73
2021/07/29 00:57:48;;;;;;;8.10;3.28;;;17.90;99.90;;;;;;5038810;28;20052;-73
2021/07/29 01:00:16;;;;;;;7.55;3.42;;;17.90;99.90;;;;;;5038376;28;20072;-72
2021/07/29 01:02:43;;;;;;;6.68;3.35;;;17.90;99.90;;;;;;5041232;28;20062;-73
2021/07/29 01:05:11;;;;;;;7.63;3.03;;;17.90;99.90;;;;;;5041001;28;20109;-73
2021/07/29 01:07:39;;;;;;;7.97;3.10;;;17.80;99.90;;;;;;5038806;28;20079;-73
2021/07/29 01:10:07;;;;;;;8.57;3.38;;;17.80;99.90;;;;;;5040410;28;20056;-74
2021/07/29 01:12:35;;;;;;;6.78;2.80;;;17.80;99.90;;;;;;5039314;28;20044;-73
2021/07/29 01:15:02;;;;;;;5.38;2.92;;;17.80;99.90;;;;;;5039264;28;20064;-74
2021/07/29 01:17:31;;;;;;;9.27;3.20;;;17.80;99.90;;;;;;5038500;28;20101;-74
2021/07/29 01:19:59;;;;;;;12.02;3.30;;;17.70;99.90;;;;;;5038737;28;20109;-73
2021/07/29 01:22:33;;;;;;;5.32;2.90;;;17.70;99.90;;;;;;5040672;28;20049;-74
2021/07/29 01:24:59;;;;;;;9.68;3.45;;;17.60;99.90;;;;;;5039756;28;20106;-74
2021/07/29 01:27:30;;;;;;;7.28;3.03;;;17.60;99.90;;;;;;5039766;28;20485;-73
2021/07/29 01:29:58;;;;;;;9.35;3.00;;;17.50;99.90;;;;;;5040066;28;20103;-73
2021/07/29 01:32:26;;;;;;;6.13;3.08;;;17.50;99.90;;;;;;5040188;28;20133;-73
2021/07/29 01:34:53;;;;;;;7.72;3.35;;;17.50;99.90;;;;;;5039361;28;20056;-74
2021/07/29 01:37:20;;;;;;;6.63;3.30;;;17.40;99.90;;;;;;5039205;28;20056;-74
2021/07/29 01:39:48;;;;;;;6.50;3.38;;;17.40;99.90;;;;;;5038969;28;20052;-73
2021/07/29 01:42:15;;;;;;;6.47;3.20;;;17.40;99.90;;;;;;5037297;28;20121;-72
2021/07/29 01:44:43;;;;;;;6.72;2.83;;;17.40;99.90;;;;;;5037699;28;20829;-73
2021/07/29 01:47:10;;;;;;;5.78;3.13;;;17.40;99.90;;;;;;5037739;28;20088;-73
2021/07/29 01:49:37;;;;;;;6.40;3.72;;;17.40;99.90;;;;;;5036496;28;20055;-73
2021/07/29 01:52:05;;;;;;;7.40;3.40;;;17.30;99.90;;;;;;5039542;28;20044;-73
2021/07/29 01:54:32;;;;;;;6.93;3.13;;;17.30;99.90;;;;;;5038902;28;20049;-73
2021/07/29 01:57:00;;;;;;;5.53;2.90;;;17.30;99.90;;;;;;5039360;28;20135;-73
2021/07/29 01:59:27;;;;;;;5.93;3.20;;;17.30;99.90;;;;;;5037243;28;20056;-73
2021/07/29 02:01:54;;;;;;;5.95;3.30;;;17.30;99.90;;;;;;5040921;28;20080;-73
2021/07/29 02:04:21;;;;;;;8.70;3.13;;;17.20;99.90;;;;;;5039981;28;20091;-74
2021/07/29 02:06:48;;;;;;;8.95;3.58;;;17.20;99.90;;;;;;5040712;28;20433;-73
2021/07/29 02:09:15;;;;;;;9.48;3.78;;;17.20;99.90;;;;;;5037382;28;20490;-74
2021/07/29 02:11:49;;;;;;;9.35;3.15;;;17.20;99.90;;;;;;5039727;28;20053;-73
2021/07/29 02:14:17;;;;;;;11.88;3.60;;;17.10;99.90;;;;;;5038535;28;20067;-73
2021/07/29 02:16:44;;;;;;;8.45;3.65;;;17.10;99.90;;;;;;5039951;28;20044;-73
2021/07/29 02:19:11;;;;;;;11.32;3.28;;;17.10;99.90;;;;;;5037488;28;20114;-73
2021/07/29 02:21:39;;;;;;;6.45;3.08;;;17.10;99.90;;;;;;5038264;28;20044;-73
2021/07/29 02:24:07;;;;;;;6.30;3.25;;;17.10;99.90;;;;;;5039706;28;20063;-72
2021/07/29 02:26:34;;;;;;;5.40;2.88;;;17.10;99.90;;;;;;5040247;28;20067;-73
2021/07/29 02:29:01;;;;;;;10.10;3.33;;;17.00;99.90;;;;;;5036784;28;20048;-73
2021/07/29 02:31:29;;;;;;;5.97;3.60;;;17.10;99.90;;;;;;5039336;28;20125;-73
2021/07/29 02:33:56;;;;;;;6.53;3.47;;;17.00;99.90;;;;;;5039301;28;20133;-74
2021/07/29 02:36:23;;;;;;;8.32;3.33;;;17.00;99.90;;;;;;5039194;28;20636;-73
2021/07/29 02:38:50;;;;;;;5.63;3.28;;;16.90;99.90;;;;;;5039900;28;20098;-73
2021/07/29 02:41:18;;;;;;;6.47;3.42;;;16.90;99.90;;;;;;5040281;28;20076;-73
2021/07/29 02:43:45;;;;;;;8.35;3.60;;;16.90;99.90;;;;;;5040758;28;20060;-74
2021/07/29 02:46:12;;;;;;;6.30;3.28;;;16.90;99.90;;;;;;5039297;28;20105;-74
2021/07/29 02:48:41;;;;;;;7.00;3.15;;;16.90;99.90;;;;;;5038491;28;20080;-73
2021/07/29 02:51:08;;;;;;;6.93;3.17;;;16.90;99.90;;;;;;5040423;28;20548;-73
2021/07/29 02:53:35;;;;;;;6.20;3.17;;;16.80;99.90;;;;;;5039679;28;20485;-73
2021/07/29 02:56:03;;;;;;;8.23;3.53;;;16.80;99.90;;;;;;5039492;28;20066;-74
2021/07/29 02:58:30;;;;;;;7.57;3.08;;;16.80;99.90;;;;;;5038227;28;20052;-73
2021/07/29 03:00:57;;;;;;;6.35;3.25;;;16.70;99.90;;;;;;5039352;28;20049;-73
2021/07/29 03:03:24;;;;;;;7.85;3.45;;;16.70;99.90;;;;;;5040207;28;20094;-75
2021/07/29 03:05:52;;;;;;;6.43;3.53;;;16.70;99.90;;;;;;5040213;28;20053;-74
2021/07/29 03:08:19;;;;;;;10.02;3.72;;;16.70;99.90;;;;;;5037676;28;20137;-74
2021/07/29 03:10:47;;;;;;;9.50;4.10;;;16.60;99.90;;;;;;5039534;28;20056;-74
2021/07/29 03:13:14;;;;;;;7.10;3.10;;;16.60;99.90;;;;;;5036769;28;20072;-74
2021/07/29 03:15:41;;;;;;;9.90;3.60;;;16.60;99.90;;;;;;5040987;28;20048;-74
2021/07/29 03:18:09;;;;;;;9.80;3.40;;;16.60;99.90;;;;;;5042763;28;21469;-74
2021/07/29 03:20:36;;;;;;;8.85;4.60;;;16.50;99.90;;;;;;5041594;28;20086;-74
2021/07/29 03:23:04;;;;;;;7.25;3.67;;;16.50;99.90;;;;;;5042052;28;20117;-74
2021/07/29 03:25:31;;;;;;;12.15;3.45;;;16.50;99.90;;;;;;5041625;28;20908;-73
2021/07/29 03:27:58;;;;;;;6.32;3.60;;;16.50;99.90;;;;;;5042572;28;20076;-74
2021/07/29 03:30:25;;;;;;;7.20;3.28;;;16.50;99.90;;;;;;5043226;28;20076;-74
2021/07/29 03:32:53;;;;;;;8.23;3.95;;;16.50;99.90;;;;;;5041095;28;20090;-75
2021/07/29 03:35:20;;;;;;;11.77;3.53;;;16.40;99.90;;;;;;5041887;28;20102;-74
2021/07/29 03:37:47;;;;;;;9.23;3.63;;;16.40;99.90;;;;;;5041496;28;20040;-74
2021/07/29 03:40:15;;;;;;;7.40;3.92;;;16.30;99.90;;;;;;5041862;28;20056;-74
2021/07/29 03:42:42;;;;;;;7.25;4.10;;;16.30;99.90;;;;;;5042665;28;20053;-74
2021/07/29 03:45:10;;;;;;;7.07;3.67;;;16.30;99.90;;;;;;5042308;28;20049;-74
2021/07/29 03:47:37;;;;;;;9.63;3.70;;;16.30;99.90;;;;;;5039576;28;20060;-74
2021/07/29 03:50:05;;;;;;;9.75;4.72;;;16.20;99.90;;;;;;5043161;28;20501;-73
2021/07/29 03:52:32;;;;;;;7.53;3.95;;;16.30;99.90;;;;;;5043221;28;20136;-73
2021/07/29 03:54:59;;;;;;;7.13;3.38;;;16.30;99.90;;;;;;5044608;28;21485;-74
2021/07/29 03:57:27;;;;;;;6.88;3.42;;;16.20;99.90;;;;;;5043539;28;20107;-74
2021/07/29 03:59:54;;;;;;;8.05;3.45;;;16.20;99.90;;;;;;5042664;28;20129;-74
2021/07/29 04:02:21;;;;;;;8.15;3.55;;;16.20;99.90;;;;;;5043689;28;20139;-74
2021/07/29 04:04:48;;;;;;;7.13;4.03;;;16.20;99.90;;;;;;5044829;28;20164;-74
2021/07/29 04:07:15;;;;;;;10.07;4.22;;;16.10;99.90;;;;;;5041384;28;20044;-74
2021/07/29 04:09:42;;;;;;;9.75;3.67;;;16.10;99.90;;;;;;5041148;28;20090;-74
2021/07/29 04:12:09;;;;;;;7.22;3.70;;;16.20;99.90;;;;;;5041078;28;20055;-74
2021/07/29 04:14:38;;;;;;;7.20;3.55;;;16.20;99.90;;;;;;5040361;28;20540;-74
2021/07/29 04:17:05;;;;;;;18.58;3.88;;;16.20;99.90;;;;;;5041468;28;20148;-74
2021/07/29 04:19:33;;;;;;;9.85;4.00;;;16.20;99.90;;;;;;5040970;28;20094;-74
2021/07/29 04:22:00;;;;;;;9.10;4.18;;;16.20;99.90;;;;;;5041515;28;20412;-74
2021/07/29 04:24:29;;;;;;;15.05;4.63;;;16.20;99.90;;;;;;5041161;28;20072;-74
2021/07/29 04:26:57;;;;;;;10.43;4.13;;;16.20;99.90;;;;;;5040309;28;20052;-74
2021/07/29 04:29:24;;;;;;;9.57;3.85;;;16.20;99.90;;;;;;5040800;28;20509;-74
2021/07/29 04:31:53;;;;;;;7.13;3.25;;;16.20;99.90;;;;;;5041286;28;20102;-74
2021/07/29 04:34:20;;;;;;;9.35;3.58;;;16.30;99.90;;;;;;5038778;28;20109;-75
2021/07/29 04:36:48;;;;;;;9.15;3.70;;;16.30;99.90;;;;;;5040752;28;20057;-73
2021/07/29 04:39:14;;;;;;;7.82;3.85;;;16.40;99.90;;;;;;5041709;28;20551;-73
2021/07/29 04:41:43;;;;;;;9.18;3.50;;;16.30;99.90;;;;;;5043406;28;20113;-73
2021/07/29 04:44:11;;;;;;;8.13;3.95;;;16.40;99.90;;;;;;5043369;28;20189;-73
2021/07/29 04:46:40;;;;;;;8.77;4.53;;;16.50;99.90;;;;;;5041176;28;20866;-73
2021/07/29 04:49:10;;;;;;;6.78;3.42;;;16.50;99.90;;;;;;5037167;28;20056;-73
2021/07/29 04:51:37;;;;;;;9.73;3.70;;;16.50;99.90;;;;;;5038956;28;20051;-74
2021/07/29 04:54:05;;;;;;;10.32;3.85;;;16.50;99.90;;;;;;5040663;28;20060;-74
2021/07/29 04:56:32;;;;;;;6.95;3.53;;;16.50;99.90;;;;;;5040021;28;20048;-74
2021/07/29 04:58:59;;;;;;;7.40;3.40;;;16.60;99.90;;;;;;5039587;28;20056;-74
2021/07/29 05:01:26;;;;;;;9.23;3.72;;;16.70;99.90;;;;;;5039509;28;20052;-74
2021/07/29 05:03:53;;;;;;;8.57;3.72;;;16.70;99.90;;;;;;5040128;28;20462;-74
2021/07/29 05:06:21;;;;;;;7.22;3.25;;;16.70;99.90;;;;;;5039491;28;20459;-74
2021/07/29 05:08:48;;;;;;;7.03;3.45;;;16.70;99.90;;;;;;5038312;28;20088;-74
2021/07/29 05:11:16;;;;;;;8.20;3.50;;;16.70;99.90;;;;;;5037142;28;20140;-73
2021/07/29 05:13:43;;;;;;;5.93;3.22;;;16.80;99.90;;;;;;5037832;28;20072;-74
2021/07/29 05:16:10;;;;;;;7.78;3.38;;;16.80;99.90;;;;;;5046359;28;20048;-74
2021/07/29 05:18:37;;;;;;;8.88;3.60;;;16.80;99.90;;;;;;5042682;28;20057;-74
2021/07/29 05:21:06;;;;;;;8.43;3.65;;;17.00;99.90;;;;;;5041202;28;20490;-73
2021/07/29 05:23:35;;;;;;;8.35;4.30;;;17.00;99.90;;;;;;5045073;28;20130;-75
2021/07/29 05:26:02;;;;;;;6.22;3.45;;;17.00;99.90;;;;;;5046405;28;20095;-73
2021/07/29 05:28:29;;;;;;;8.15;3.90;;;17.10;99.90;;;;;;5046272;28;20084;-73
2021/07/29 05:30:56;;;;;;;7.30;3.22;;;17.20;99.90;;;;;;5046584;28;20106;-73
2021/07/29 05:33:23;;;;;;;7.63;3.10;;;17.20;99.90;;;;;;5047231;28;20420;-74
2021/07/29 05:35:50;;;;;;;7.38;3.50;;;17.30;99.90;;;;;;5047412;28;20464;-73
2021/07/29 05:38:17;;;;;;;7.53;2.83;;;17.30;99.90;;;;;;5043016;28;20080;-73
2021/07/29 05:40:46;;;;;;;7.13;4.05;;;17.40;99.90;;;;;;5045883;28;20060;-73
2021/07/29 05:43:13;;;;;;;5.63;3.03;;;17.50;99.90;;;;;;5044879;28;20056;-74
2021/07/29 05:45:40;;;;;;;7.57;2.97;;;17.60;99.90;;;;;;5042809;28;20092;-73
2021/07/29 05:48:07;;;;;;;8.43;4.07;;;17.80;99.90;;;;;;5046017;28;20072;-73
2021/07/29 05:50:34;;;;;;;6.20;3.20;;;18.00;99.90;;;;;;5045253;28;20918;-74
2021/07/29 05:53:02;;;;;;;8.13;4.00;;;18.10;99.90;;;;;;5045536;28;20053;-73
2021/07/29 05:55:29;;;;;;;6.18;2.80;;;18.00;99.90;;;;;;5046192;28;20802;-73
2021/07/29 05:58:00;;;;;;;7.00;2.88;;;18.10;99.90;;;;;;5050884;28;20060;-74
2021/07/29 06:00:27;;;;;;;7.60;3.13;;;18.20;99.90;;;;;;5052060;28;20407;-77
2021/07/29 06:02:57;;;;;;;5.97;2.90;;;18.30;99.90;;;;;;5050100;28;20052;-73
2021/07/29 06:05:24;;;;;;;10.05;3.53;;;18.30;99.90;;;;;;5047302;28;20720;-74
2021/07/29 06:07:50;;;;;;;7.25;3.30;;;18.40;99.90;;;;;;5047373;28;20095;-74
2021/07/29 06:10:17;;;;;;;9.30;3.25;;;18.50;99.90;;;;;;5047785;28;20155;-74
2021/07/29 06:12:44;;;;;;;10.85;4.07;;;18.50;99.90;;;;;;5047016;28;20427;-74
2021/07/29 06:15:22;;;;;;;12.57;4.32;;;18.60;99.90;;;;;;5050276;28;20059;-74
2021/07/29 06:18:02;;;;;;;5.20;2.92;;;18.70;99.90;;;;;;5057429;28;20045;-74
2021/07/29 06:20:30;;;;;;;8.13;3.80;;;18.70;99.90;;;;;;5048147;28;20135;-74
2021/07/29 06:22:57;;;;;;;7.25;3.38;;;18.80;99.90;;;;;;5045584;28;20088;-74
2021/07/29 06:25:24;;;;;;;7.47;2.90;;;19.00;99.90;;;;;;5051585;28;20053;-73
2021/07/29 06:27:51;;;;;;;10.50;3.05;;;19.10;99.90;;;;;;5051306;28;20091;-74
2021/07/29 06:30:20;;;;;;;5.72;2.55;;;19.20;99.90;;;;;;5051282;28;20048;-73
2021/07/29 06:32:47;;;;;;;5.25;2.83;;;19.20;99.90;;;;;;5052273;28;20049;-74
2021/07/29 06:35:14;;;;;;;7.93;2.90;;;19.30;99.90;;;;;;5050608;28;20465;-73
2021/07/29 06:37:41;;;;;;;12.75;3.00;;;19.30;99.90;;;;;;5051209;28;20460;-74
2021/07/29 06:40:09;;;;;;;11.98;3.38;;;19.40;99.90;;;;;;5051282;28;20794;-75
2021/07/29 06:42:38;;;;;;;9.23;3.10;;;19.50;99.90;;;;;;5051467;28;20524;-74
2021/07/29 06:45:06;;;;;;;7.00;2.75;;;19.60;99.90;;;;;;5052206;28;20466;-72
2021/07/29 06:47:35;;;;;;;6.53;3.25;;;19.60;99.90;;;;;;5050570;28;20135;-72
2021/07/29 06:50:02;;;;;;;6.93;3.00;;;19.60;99.90;;;;;;5051112;28;20125;-73
2021/07/29 06:52:28;;;;;;;5.38;2.90;;;19.70;99.90;;;;;;5050194;28;20088;-73
2021/07/29 06:54:55;;;;;;;11.43;3.15;;;19.70;99.90;;;;;;5050327;28;20048;-74
2021/07/29 06:57:22;;;;;;;5.85;3.35;;;19.70;99.90;;;;;;5050053;28;20135;-74
2021/07/29 06:59:49;;;;;;;7.00;3.00;;;19.80;99.90;;;;;;5049743;28;20063;-72
2021/07/29 07:02:16;;;;;;;5.82;2.80;;;19.80;99.90;;;;;;5050438;28;20578;-72
2021/07/29 07:04:45;;;;;;;6.88;2.60;;;19.80;99.90;;;;;;5050687;28;20048;-72
2021/07/29 07:07:16;;;;;;;6.30;2.45;;;19.90;99.90;;;;;;5049545;28;20090;-72
2021/07/29 07:09:43;;;;;;;6.80;2.75;;;19.90;99.90;;;;;;5049909;28;20044;-72
2021/07/29 07:12:10;;;;;;;8.43;3.10;;;19.90;99.90;;;;;;5050655;28;20092;-73
2021/07/29 07:14:37;;;;;;;6.20;2.65;;;20.10;99.90;;;;;;5051049;28;20048;-72
2021/07/29 07:17:06;;;;;;;8.15;2.60;;;20.10;99.90;;;;;;5050708;28;20291;-72
2021/07/29 07:19:33;;;;;;;6.65;2.92;;;20.20;99.90;;;;;;5049423;28;20058;-74
2021/07/29 07:22:02;;;;;;;6.60;2.58;;;20.20;99.90;;;;;;5050867;28;20040;-73
2021/07/29 07:24:30;;;;;;;5.30;2.15;;;20.40;99.90;;;;;;5050800;28;20053;-73
2021/07/29 07:27:00;;;;;;;4.95;2.42;;;20.50;99.90;;;;;;5053065;28;20092;-73
2021/07/29 07:29:27;;;;;;;7.57;2.58;;;20.40;99.90;;;;;;5050307;28;20997;-75
2021/07/29 07:31:54;;;;;;;7.03;3.00;;;20.40;99.90;;;;;;5051042;28;20048;-72
2021/07/29 07:34:21;;;;;;;7.47;2.67;;;20.50;99.90;;;;;;5048468;28;20110;-72
2021/07/29 07:36:48;;;;;;;6.25;2.70;;;20.70;99.90;;;;;;5049906;28;20052;-73
2021/07/29 07:39:16;;;;;;;7.70;3.03;;;20.70;99.90;;;;;;5049686;28;20450;-73
2021/07/29 07:41:43;;;;;;;8.13;2.78;;;20.80;99.90;;;;;;5050192;28;20053;-74
2021/07/29 07:44:10;;;;;;;5.60;2.70;;;20.80;99.90;;;;;;5051273;28;20106;-73
2021/07/29 07:46:37;;;;;;;6.18;2.97;;;20.90;99.90;;;;;;5050592;28;20106;-73
2021/07/29 07:49:04;;;;;;;7.70;2.78;;;21.00;99.90;;;;;;5049831;28;20084;-74
2021/07/29 07:51:31;;;;;;;5.68;3.20;;;21.10;99.90;;;;;;5050200;28;20212;-74
2021/07/29 07:53:58;;;;;;;8.23;3.20;;;21.30;99.90;;;;;;5049763;28;20048;-74
2021/07/29 07:56:26;;;;;;;5.75;3.00;;;21.30;99.90;;;;;;5050717;28;20083;-74
2021/07/29 07:58:53;;;;;;;5.63;3.00;;;21.20;99.90;;;;;;5050338;28;20290;-75
2021/07/29 08:01:20;;;;;;;7.55;2.83;;;21.20;99.90;;;;;;5051653;28;20486;-74
2021/07/29 08:03:48;;;;;;;6.15;2.88;;;21.40;99.90;;;;;;5053179;28;20048;-75
2021/07/29 08:06:15;;;;;;;9.52;3.45;;;21.50;99.90;;;;;;5053277;28;20639;-72
2021/07/29 08:08:43;;;;;;;5.32;2.70;;;21.50;99.90;;;;;;5053281;28;20045;-73
2021/07/29 08:11:10;;;;;;;6.28;2.42;;;21.70;99.90;;;;;;5045818;28;20048;-73
2021/07/29 08:13:39;;;;;;;5.95;2.70;;;21.70;99.90;;;;;;5045588;28;20999;-74
2021/07/29 08:16:09;;;;;;;6.72;2.85;;;21.80;99.90;;;;;;5054155;28;20146;-73
2021/07/29 08:18:36;;;;;;;5.95;2.80;;;21.50;99.90;;;;;;5051496;28;20125;-73
2021/07/29 08:21:09;;;;;;;7.07;3.03;;;21.60;99.90;;;;;;5052568;28;20044;-73
2021/07/29 08:23:36;;;;;;;5.57;2.63;;;21.70;99.90;;;;;;5054615;28;20049;-73
2021/07/29 08:26:05;;;;;;;8.32;2.80;;;22.20;99.90;;;;;;5052954;28;20110;-73
2021/07/29 08:28:32;;;;;;;5.60;2.40;;;22.30;99.90;;;;;;5051758;28;20544;-73
2021/07/29 08:31:00;;;;;;;17.05;4.57;;;22.40;99.90;;;;;;5053531;28;20505;-73
2021/07/29 08:33:27;;;;;;;5.95;2.80;;;21.90;99.90;;;;;;5053181;28;20052;-74
2021/07/29 08:35:54;;;;;;;7.68;3.15;;;21.80;99.90;;;;;;5052846;28;20049;-75
2021/07/29 08:38:21;;;;;;;6.78;2.90;;;21.40;99.90;;;;;;5052457;28;20106;-74
2021/07/29 08:40:53;;;;;;;6.32;3.00;;;21.30;99.90;;;;;;5053465;28;20413;-75
2021/07/29 08:43:20;;;;;;;5.82;2.70;;;21.10;99.90;;;;;;5052184;28;20464;-73
2021/07/29 08:45:51;;;;;;;7.70;3.10;;;20.90;99.90;;;;;;5052634;28;20044;-73
2021/07/29 08:48:25;;;;;;;6.80;2.70;;;20.90;99.90;;;;;;5050933;28;20068;-73
2021/07/29 08:50:52;;;;;;;6.43;3.10;;;21.00;99.90;;;;;;5053122;28;20057;-74
2021/07/29 08:53:19;;;;;;;6.97;3.00;;;21.30;99.90;;;;;;5051582;28;20541;-73
2021/07/29 08:55:49;;;;;;;7.25;2.58;;;22.10;99.90;;;;;;5052618;28;20090;-75
2021/07/29 08:58:16;;;;;;;10.07;3.00;;;22.60;99.90;;;;;;5051430;28;20052;-73
2021/07/29 09:00:59;;;;;;;7.75;3.20;;;22.90;99.90;;;;;;5052900;28;20674;-73
2021/07/29 09:03:28;;;;;;;6.75;2.70;;;22.70;99.90;;;;;;5051385;28;20049;-74
2021/07/29 09:06:03;;;;;;;6.28;2.90;;;22.50;99.90;;;;;;5052183;28;20056;-73
2021/07/29 09:08:42;;;;;;;7.18;2.80;;;21.90;99.90;;;;;;5050890;28;20378;-74
2021/07/29 09:11:28;;;;;;;10.20;3.03;;;21.90;99.90;;;;;;5045886;28;20052;-74
2021/07/29 09:14:08;;;;;;;9.77;3.13;;;22.20;99.90;;;;;;5049798;28;20053;-73
2021/07/29 09:16:37;;;;;;;8.63;2.75;;;21.80;99.90;;;;;;5052067;28;20061;-73
2021/07/29 09:19:06;;;;;;;7.90;2.97;;;21.40;99.90;;;;;;5050233;28;20045;-73
2021/07/29 09:21:34;;;;;;;6.53;2.95;;;21.50;99.90;;;;;;5051978;28;20044;-75
2021/07/29 09:24:06;;;;;;;6.10;3.00;;;22.40;99.90;;;;;;5052269;28;20048;-73
2021/07/29 09:27:00;;;;;;;13.35;3.10;;;23.70;99.90;;;;;;5051546;28;20102;-73
2021/07/29 09:29:28;;;;;;;7.25;3.17;;;25.30;99.90;;;;;;5038316;28;20056;-73
2021/07/29 09:32:06;;;;;;;5.20;2.35;;;26.20;99.90;;;;;;5053033;28;20543;-74
2021/07/29 09:34:44;;;;;;;5.18;2.55;;;25.40;99.90;;;;;;5051213;28;20052;-74
2021/07/29 09:37:12;;;;;;;8.60;3.13;;;24.90;99.90;;;;;;5051290;28;20452;-75
2021/07/29 09:39:39;;;;;;;4.50;2.50;;;25.10;99.90;;;;;;5051184;28;21224;-75
2021/07/29 09:42:21;;;;;;;5.47;2.55;;;25.20;99.90;;;;;;5052160;28;20506;-73
2021/07/29 09:44:53;;;;;;;8.43;2.58;;;25.20;99.90;;;;;;5049652;28;20171;-73
2021/07/29 09:47:23;;;;;;;7.22;2.72;;;25.50;99.90;;;;;;5046412;28;20052;-74
2021/07/29 09:49:53;;;;;;;5.15;2.70;;;24.10;99.90;;;;;;5047176;28;20052;-72
2021/07/29 09:52:30;;;;;;;5.70;2.22;;;23.80;99.90;;;;;;5047991;28;20126;-73
2021/07/29 09:54:58;;;;;;;6.90;2.70;;;23.80;99.90;;;;;;5048229;28;20420;-72
2021/07/29 09:57:25;;;;;;;7.28;2.78;;;24.20;99.90;;;;;;5051109;28;20465;-74
2021/07/29 09:59:52;;;;;;;5.93;2.50;;;24.00;99.90;;;;;;5050577;28;20453;-73
2021/07/29 10:02:23;;;;;;;5.93;2.92;;;23.30;99.90;;;;;;5048171;28;20114;-74
2021/07/29 10:04:54;;;;;;;7.57;2.92;;;24.00;99.90;;;;;;5049420;28;20060;-74
2021/07/29 10:07:27;;;;;;;7.60;2.55;;;25.00;99.90;;;;;;5051773;28;20090;-73
2021/07/29 10:09:55;;;;;;;5.18;3.08;;;26.30;99.90;;;;;;5050776;28;20147;-74
2021/07/29 10:12:25;;;;;;;5.78;2.40;;;26.70;99.90;;;;;;5050399;28;20094;-73
2021/07/29 10:14:54;;;;;;;5.00;2.80;;;26.70;99.90;;;;;;5051323;28;21034;-73
2021/07/29 10:18:02;;;;;;;9.70;3.30;;;26.30;99.90;;;;;;5049276;28;20230;-73
2021/07/29 10:20:32;;;;;;;9.93;2.97;;;25.80;99.90;;;;;;5047860;28;20067;-74
2021/07/29 10:23:28;;;;;;;6.30;2.60;;;25.50;99.90;;;;;;5042138;28;20040;-73
2021/07/29 10:26:06;;;;;;;4.95;3.00;;;25.80;99.90;;;;;;5047682;28;20040;-74
2021/07/29 10:28:38;;;;;;;8.13;2.97;;;25.50;99.90;;;;;;5046641;28;20124;-73
2021/07/29 10:31:05;;;;;;;5.70;3.10;;;24.80;99.90;;;;;;5043983;28;20382;-74
2021/07/29 10:33:33;;;;;;;7.35;3.63;;;25.60;99.90;;;;;;5050823;28;20129;-73
2021/07/29 10:36:02;;;;;;;5.47;3.00;;;25.40;99.90;;;;;;5050806;28;20052;-74
2021/07/29 10:38:47;;;;;;;7.88;3.13;;;24.20;99.90;;;;;;5054453;28;20119;-73
2021/07/29 10:41:40;;;;;;;5.82;3.05;;;23.60;99.90;;;;;;5050867;28;20056;-73
2021/07/29 10:44:10;;;;;;;10.48;3.92;;;24.10;99.90;;;;;;5044601;28;20048;-74
2021/07/29 10:47:02;;;;;;;8.15;4.03;;;24.70;99.90;;;;;;5034572;28;20516;-74
2021/07/29 10:50:19;;;;;;;7.22;3.25;;;24.90;99.90;;;;;;5040385;28;20048;-74
2021/07/29 10:52:49;;;;;;;7.15;2.97;;;25.60;99.90;;;;;;5041274;28;20063;-73
2021/07/29 10:55:17;;;;;;;6.72;2.80;;;25.70;99.90;;;;;;5043693;28;20071;-75
2021/07/29 10:58:03;;;;;;;9.32;3.45;;;26.10;99.90;;;;;;5040062;28;20088;-74
2021/07/29 11:00:31;;;;;;;5.47;2.72;;;26.70;99.90;;;;;;5037686;28;20044;-73
2021/07/29 11:03:06;;;;;;;6.07;3.00;;;26.00;99.90;;;;;;5035032;28;20048;-74
2021/07/29 11:05:43;;;;;;;9.32;2.85;;;26.40;99.90;;;;;;5041752;28;21264;-76
2021/07/29 11:08:12;;;;;;;4.75;2.75;;;25.70;99.90;;;;;;5039683;28;21053;-76
2021/07/29 11:10:39;;;;;;;5.25;3.22;;;24.40;99.90;;;;;;5040613;28;20057;-73
2021/07/29 11:13:07;;;;;;;8.38;3.33;;;24.60;99.90;;;;;;5041979;28;20552;-75
2021/07/29 11:15:39;;;;;;;5.93;2.40;;;24.20;99.90;;;;;;5041750;28;20057;-74
2021/07/29 11:18:11;;;;;;;7.85;3.58;;;25.10;99.90;;;;;;5040874;28;20052;-74
2021/07/29 11:20:38;;;;;;;6.57;2.60;;;25.70;99.90;;;;;;5041442;28;20140;-74
2021/07/29 11:23:05;;;;;;;7.00;3.05;;;25.00;99.90;;;;;;5040839;28;20229;-73
2021/07/29 11:25:35;;;;;;;7.60;3.20;;;25.00;99.90;;;;;;5041402;28;20049;-73
2021/07/29 11:28:13;;;;;;;8.18;2.78;;;25.20;99.90;;;;;;5041083;28;20067;-74
2021/07/29 11:30:43;;;;;;;4.88;2.60;;;24.80;99.90;;;;;;5038532;28;20053;-75
2021/07/29 11:33:21;;;;;;;6.25;3.28;;;24.20;99.90;;;;;;5040155;28;20500;-74
2021/07/29 11:35:48;;;;;;;5.72;2.75;;;24.70;99.90;;;;;;5042065;28;20057;-73
2021/07/29 11:38:20;;;;;;;10.48;3.10;;;24.80;99.90;;;;;;5037367;28;20117;-74
2021/07/29 11:40:49;;;;;;;6.53;2.90;;;24.80;99.90;;;;;;5048851;28;20519;-74
2021/07/29 11:43:22;;;;;;;9.05;3.17;;;25.00;99.90;;;;;;5047937;28;20135;-73
2021/07/29 11:45:49;;;;;;;7.90;3.08;;;25.80;99.90;;;;;;5043122;28;20053;-74
2021/07/29 11:48:23;;;;;;;9.18;2.90;;;26.30;99.90;;;;;;5050831;28;20048;-75
2021/07/29 11:50:51;;;;;;;10.23;3.70;;;26.20;99.90;;;;;;5050466;28;20619;-78
2021/07/29 11:53:19;;;;;;;7.28;3.03;;;25.80;99.90;;;;;;5050089;28;20045;-74
2021/07/29 11:55:55;;;;;;;6.03;2.90;;;26.00;99.90;;;;;;5052561;28;20041;-74
2021/07/29 11:58:22;;;;;;;8.95;3.58;;;26.10;99.90;;;;;;5047359;28;20076;-74
2021/07/29 12:00:51;;;;;;;6.63;2.88;;;25.20;99.90;;;;;;5047709;28;20111;-74
2021/07/29 12:03:27;;;;;;;5.10;2.72;;;24.60;99.90;;;;;;5051621;28;20109;-73
2021/07/29 12:05:56;;;;;;;5.80;3.22;;;24.60;99.90;;;;;;5053356;28;20044;-75
2021/07/29 12:08:23;;;;;;;6.55;2.63;;;24.90;99.90;;;;;;5048216;28;20052;-74
2021/07/29 12:10:55;;;;;;;6.50;3.17;;;25.00;99.90;;;;;;5042100;28;20088;-75
2021/07/29 12:13:23;;;;;;;5.40;2.92;;;26.10;99.90;;;;;;5047606;28;20784;-75
2021/07/29 12:15:51;;;;;;;7.85;3.35;;;26.00;99.90;;;;;;5051636;28;20274;-73
2021/07/29 12:18:19;;;;;;;8.77;3.00;;;26.90;99.90;;;;;;5048865;28;20487;-74
2021/07/29 12:20:48;;;;;;;6.03;2.92;;;26.30;99.90;;;;;;5049448;28;20048;-73
2021/07/29 12:23:16;;;;;;;6.45;3.05;;;26.90;99.90;;;;;;5047439;28;20535;-74
2021/07/29 12:25:44;;;;;;;6.10;3.03;;;27.30;99.90;;;;;;5047716;28;21438;-74
2021/07/29 12:28:13;;;;;;;8.25;3.60;;;27.40;99.80;;;;;;5043113;28;20497;-74
2021/07/29 12:30:42;;;;;;;6.68;2.88;;;27.20;99.70;;;;;;5047868;28;20053;-74
2021/07/29 12:33:11;;;;;;;6.97;3.30;;;26.40;99.90;;;;;;5047991;28;20666;-74
2021/07/29 12:35:39;;;;;;;5.90;3.35;;;26.10;99.90;;;;;;5048316;28;20919;-74
2021/07/29 12:38:07;;;;;;;7.32;3.08;;;26.10;99.90;;;;;;5049294;28;20126;-74
2021/07/29 12:40:35;;;;;;;6.82;3.65;;;27.00;99.40;;;;;;5052377;28;20041;-74
2021/07/29 12:43:20;;;;;;;9.73;3.60;;;26.80;98.90;;;;;;5049773;28;20060;-76
2021/07/29 12:45:48;;;;;;;5.65;3.22;;;27.00;99.00;;;;;;5046740;28;20131;-74
2021/07/29 12:48:15;;;;;;;7.38;3.45;;;27.40;97.40;;;;;;5046955;28;20074;-74
2021/07/29 12:50:42;;;;;;;7.60;3.28;;;27.40;97.90;;;;;;5048310;28;20080;-73
2021/07/29 12:53:10;;;;;;;9.32;3.55;;;27.70;98.20;;;;;;5048415;28;20044;-74
2021/07/29 12:55:38;;;;;;;8.73;3.45;;;27.00;97.70;;;;;;5048492;28;20055;-74
2021/07/29 12:58:06;;;;;;;7.90;3.42;;;26.00;97.10;;;;;;5046894;28;20053;-74